Time;durP1;ratioP1;P1;durP2;ratioP2;P2;SDS_P1;SDS_P2;PMS_P1;PMS_P2;Temp;Humidity;BMP_temperature;BMP_pressure;BME280_temperature;BME280_humidity;BME280_pressure;Samples;Min_cycle;Max_cycle;Signal;HPM_P1;HPM_P2
2022/06/12 00:00:17;;;;;;;8.82;1.92;;;;;;;21.77;43.55;102277.84;5028505;28;20481;-67
2022/06/12 00:02:43;;;;;;;6.00;1.90;;;;;;;21.87;43.29;102277.94;5028768;28;20519;-69
2022/06/12 00:05:10;;;;;;;10.70;2.72;;;;;;;21.57;43.30;102284.00;5030879;28;20106;-68
2022/06/12 00:07:35;;;;;;;6.95;2.03;;;;;;;21.54;43.31;102287.25;5027211;28;20022;-68
2022/06/12 00:10:02;;;;;;;5.90;2.47;;;;;;;21.63;43.43;102282.97;5031139;28;20115;-68
2022/06/12 00:12:27;;;;;;;9.98;2.55;;;;;;;21.68;43.45;102285.72;5013265;28;20120;-67
2022/06/12 00:14:55;;;;;;;5.22;2.22;;;;;;;21.44;43.81;102278.16;5030712;28;20095;-67
2022/06/12 00:17:21;;;;;;;8.95;2.88;;;;;;;21.72;42.39;102275.88;5030181;28;20037;-68
2022/06/12 00:19:49;;;;;;;11.85;2.85;;;;;;;21.67;42.27;102278.59;5031419;28;20485;-67
2022/06/12 00:22:15;;;;;;;8.63;1.80;;;;;;;21.91;41.61;102275.47;5031462;28;20044;-67
2022/06/12 00:24:40;;;;;;;16.13;2.28;;;;;;;21.74;41.84;102278.34;5029780;28;20508;-67
2022/06/12 00:27:07;;;;;;;8.40;1.83;;;;;;;21.69;42.14;102278.34;5023902;28;20033;-69
2022/06/12 00:29:34;;;;;;;5.38;2.05;;;;;;;21.58;42.73;102276.63;5028776;28;20046;-67
2022/06/12 00:32:12;;;;;;;5.32;1.42;;;;;;;21.47;42.87;102280.38;5021228;28;20121;-67
2022/06/12 00:34:44;;;;;;;8.60;2.25;;;;;;;21.52;42.41;102280.41;5030754;28;20053;-67
2022/06/12 00:37:11;;;;;;;8.60;2.25;;;;;;;21.34;42.95;102278.91;5030680;28;20030;-65
2022/06/12 00:39:38;;;;;;;5.20;1.98;;;;;;;21.14;44.14;102270.53;5031209;28;20136;-68
2022/06/12 00:42:05;;;;;;;8.80;1.90;;;;;;;21.43;43.21;102271.88;5030481;28;20033;-68
2022/06/12 00:44:40;;;;;;;4.60;1.85;;;;;;;21.27;43.87;102270.09;5030479;28;20524;-67
2022/06/12 00:47:10;;;;;;;5.35;2.17;;;;;;;21.39;43.13;102268.00;5030191;28;20461;-67
2022/06/12 00:49:42;;;;;;;;;;;;;;;21.37;43.09;102266.59;5031834;28;20498;-66
2022/06/12 00:52:14;;;;;;;12.93;2.10;;;;;;;21.26;43.28;102265.72;5029232;28;19981;-68
2022/06/12 00:54:46;;;;;;;6.97;1.77;;;;;;;21.34;43.24;102261.69;5025383;28;20535;-68
2022/06/12 00:57:12;;;;;;;5.97;1.77;;;;;;;21.30;43.78;102266.03;5029963;28;20144;-68
2022/06/12 00:59:42;;;;;;;13.85;3.20;;;;;;;21.29;43.38;102267.09;5029238;28;20068;-66
2022/06/12 01:02:12;;;;;;;6.38;2.80;;;;;;;21.29;43.79;102254.25;5029610;28;20462;-67
2022/06/12 01:07:32;;;;;;;4.53;2.13;;;;;;;21.12;44.10;102263.69;4968445;28;20047;-66
2022/06/12 01:10:02;;;;;;;11.73;2.55;;;;;;;21.09;43.77;102266.94;4962091;28;20042;-67
2022/06/12 01:12:31;;;;;;;7.30;2.22;;;;;;;21.02;43.76;102260.84;4966513;28;20516;-67
2022/06/12 01:15:01;;;;;;;6.63;2.33;;;;;;;20.92;44.18;102256.09;4967835;28;20185;-66
2022/06/12 01:17:28;;;;;;;10.10;2.22;;;;;;;21.03;43.33;102257.06;4967946;28;20050;-69
2022/06/12 01:20:01;;;;;;;4.75;2.03;;;;;;;20.85;43.82;102261.75;4962806;28;20593;-69
2022/06/12 01:22:29;;;;;;;10.60;2.17;;;;;;;20.87;43.53;102256.06;4968429;28;20042;-66
2022/06/12 01:24:57;;;;;;;7.78;2.58;;;;;;;21.02;43.28;102261.69;4968982;28;20479;-65
2022/06/12 01:27:58;;;;;;;6.55;2.63;;;;;;;20.74;43.37;102262.75;4969058;28;20151;-70
2022/06/12 01:30:32;;;;;;;;;;;;;;;20.73;43.85;102257.56;4969108;28;20053;-66
2022/06/12 01:33:07;;;;;;;11.25;2.50;;;;;;;20.94;43.03;102257.50;4968663;28;20526;-67
2022/06/12 01:35:44;;;;;;;4.35;1.98;;;;;;;20.84;42.83;102262.03;4968484;28;20541;-67
2022/06/12 01:38:19;;;;;;;10.85;2.53;;;;;;;20.21;44.68;102254.50;4968618;28;20150;-68
2022/06/12 01:40:51;;;;;;;8.25;2.45;;;;;;;20.52;44.14;102250.25;4969300;28;20035;-66
2022/06/12 01:43:19;;;;;;;8.85;2.65;;;;;;;20.60;43.87;102257.97;4968820;28;20427;-67
2022/06/12 01:46:08;;;;;;;4.50;1.98;;;;;;;20.51;44.25;102251.31;5025722;28;20040;-67
2022/06/12 01:49:11;;;;;;;4.78;2.10;;;;;;;20.67;43.09;102243.03;5023069;28;20041;-67
2022/06/12 01:51:46;;;;;;;7.28;1.92;;;;;;;20.57;43.80;102237.47;5028289;28;20045;-67
2022/06/12 01:54:32;;;;;;;4.78;2.17;;;;;;;20.59;44.05;102251.69;5029644;28;20060;-68
2022/06/12 01:57:04;;;;;;;9.15;2.15;;;;;;;20.76;43.88;102244.19;5024221;28;20049;-71
2022/06/12 01:59:32;;;;;;;7.30;2.53;;;;;;;20.58;44.41;102250.00;5024087;28;20087;-67
2022/06/12 02:02:08;;;;;;;6.50;2.25;;;;;;;20.61;44.19;102243.22;5028698;28;20443;-69
2022/06/12 02:04:52;;;;;;;13.40;2.72;;;;;;;20.63;44.08;102235.59;5030073;28;20065;-69
2022/06/12 02:07:20;;;;;;;9.50;2.85;;;;;;;20.54;44.00;102245.34;5023955;28;20038;-68
2022/06/12 02:10:11;;;;;;;5.25;2.22;;;;;;;20.70;43.75;102245.22;5030003;28;20094;-66
2022/06/12 02:15:46;;;;;;;8.02;1.98;;;;;;;20.38;44.92;102243.53;5029942;28;20107;-77
2022/06/12 02:18:18;;;;;;;10.50;2.45;;;;;;;20.54;44.18;102237.16;5029660;28;20045;-76
2022/06/12 02:20:50;;;;;;;8.05;1.75;;;;;;;20.42;44.39;102239.19;5029792;28;20120;-77
2022/06/12 02:23:31;;;;;;;7.18;3.40;;;;;;;20.26;45.28;102240.94;5029760;28;20025;-77
2022/06/12 02:25:57;;;;;;;8.60;2.72;;;;;;;20.53;44.08;102244.50;5024926;28;20022;-75
2022/06/12 02:28:30;;;;;;;7.30;2.25;;;;;;;20.46;44.38;102241.13;5030155;28;20157;-78
2022/06/12 02:31:02;;;;;;;6.65;2.70;;;;;;;20.48;44.14;102240.91;5029833;28;20034;-77
2022/06/12 02:33:34;;;;;;;8.10;2.85;;;;;;;20.15;45.20;102231.75;5029977;28;20041;-77
2022/06/12 02:36:08;;;;;;;12.05;2.88;;;;;;;20.13;44.93;102233.09;5029028;28;20029;-76
2022/06/12 02:38:52;;;;;;;8.77;2.45;;;;;;;20.23;44.67;102230.50;5030001;28;20481;-77
2022/06/12 02:41:26;;;;;;;12.90;2.85;;;;;;;20.20;45.21;102232.94;5016863;28;20107;-76
2022/06/12 02:43:57;;;;;;;13.85;2.38;;;;;;;20.28;44.53;102238.78;5030420;28;20033;-76
2022/06/12 02:46:40;;;;;;;5.18;1.98;;;;;;;20.31;44.64;102237.41;5029349;28;20525;-77
2022/06/12 02:49:08;;;;;;;9.73;2.42;;;;;;;20.29;45.21;102231.38;5024010;28;20040;-77
2022/06/12 02:51:51;;;;;;;13.48;3.90;;;;;;;20.08;45.23;102225.69;5028012;28;20034;-76
2022/06/12 02:54:37;;;;;;;7.32;3.03;;;;;;;20.05;45.21;102228.91;5029598;28;20045;-77
2022/06/12 02:57:10;;;;;;;8.25;2.72;;;;;;;20.09;45.81;102231.94;5029097;28;20040;-77
2022/06/12 02:59:54;;;;;;;15.18;3.15;;;;;;;20.22;44.81;102228.88;5031512;28;20129;-75
2022/06/12 03:02:38;;;;;;;11.20;2.67;;;;;;;20.05;44.82;102228.91;5032928;28;20033;-77
2022/06/12 03:05:21;;;;;;;11.60;2.85;;;;;;;20.01;45.34;102216.84;5025999;28;20601;-75
2022/06/12 03:07:50;;;;;;;8.60;2.22;;;;;;;19.83;45.66;102230.78;5030149;28;20045;-78
2022/06/12 03:10:19;;;;;;;15.18;5.25;;;;;;;19.82;46.06;102218.25;5033018;28;20037;-77
2022/06/12 03:12:46;;;;;;;8.73;2.88;;;;;;;19.80;45.75;102223.13;5032919;28;20041;-78
2022/06/12 03:15:33;;;;;;;11.07;3.22;;;;;;;19.79;46.08;102224.19;5032380;28;20056;-77
2022/06/12 03:18:01;;;;;;;9.75;2.60;;;;;;;20.10;45.65;102225.41;5032384;28;20037;-76
2022/06/12 03:20:38;;;;;;;11.57;3.17;;;;;;;20.06;45.77;102230.56;5032456;28;20030;-76
2022/06/12 03:23:21;;;;;;;9.50;3.40;;;;;;;20.06;45.50;102229.72;5032884;28;20144;-76
2022/06/12 03:25:52;;;;;;;8.48;3.17;;;;;;;19.84;46.29;102234.34;5032644;28;20037;-76
2022/06/12 03:28:28;;;;;;;7.55;2.72;;;;;;;19.95;45.50;102241.63;5032668;28;20497;-77
2022/06/12 03:31:20;;;;;;;14.25;3.78;;;;;;;19.54;47.41;102233.91;5028160;28;20030;-77
2022/06/12 03:33:55;;;;;;;10.52;3.08;;;;;;;19.93;45.99;102236.38;5027300;28;20374;-76
2022/06/12 03:36:37;;;;;;;7.70;3.20;;;;;;;19.52;46.97;102236.91;5005314;28;20045;-76
2022/06/12 03:39:23;;;;;;;9.07;2.90;;;;;;;19.89;46.33;102234.44;5028050;28;20034;-75
2022/06/12 03:41:58;;;;;;;7.47;3.03;;;;;;;19.91;46.02;102235.81;5032777;28;20033;-76
2022/06/12 03:44:52;;;;;;;11.07;3.03;;;;;;;20.11;45.34;102237.97;5032322;28;20036;-77
2022/06/12 03:47:24;;;;;;;9.32;2.72;;;;;;;19.96;46.15;102226.88;5032106;28;20033;-76
2022/06/12 03:50:02;;;;;;;9.93;3.05;;;;;;;20.03;45.75;102230.22;5032383;28;20030;-76
2022/06/12 03:52:40;;;;;;;10.43;3.17;;;;;;;19.86;46.51;102232.19;5032056;28;20084;-78
2022/06/12 03:55:12;;;;;;;10.73;3.47;;;;;;;19.38;47.67;102234.78;5029635;28;20041;-75
2022/06/12 03:57:52;;;;;;;4.85;2.83;;;;;;;19.84;46.74;102246.09;5021484;28;20077;-75
2022/06/12 04:00:31;;;;;;;8.07;3.70;;;;;;;20.43;45.80;102235.38;5030572;28;20046;-78
2022/06/12 04:03:18;;;;;;;13.88;3.05;;;;;;;21.14;42.89;102236.91;5029042;28;20045;-78
2022/06/12 04:06:03;;;;;;;5.85;2.88;;;;;;;21.67;41.75;102232.09;4990271;28;20046;-76
2022/06/12 04:08:35;;;;;;;10.07;3.45;;;;;;;21.05;43.15;102231.09;4989887;28;20046;-76
2022/06/12 04:11:02;;;;;;;10.25;4.50;;;;;;;21.26;42.83;102248.50;4989663;28;20192;-76
2022/06/12 04:13:28;;;;;;;7.65;2.83;;;;;;;20.36;45.18;102237.50;4989723;28;20066;-77
2022/06/12 04:16:05;;;;;;;6.13;2.80;;;;;;;20.31;45.97;102240.16;4989952;28;20038;-75
2022/06/12 04:18:32;;;;;;;12.45;3.63;;;;;;;20.25;45.68;102243.91;4989855;28;20046;-76
2022/06/12 04:21:07;;;;;;;7.38;2.90;;;;;;;20.42;45.71;102250.13;4989907;28;20816;-78
2022/06/12 04:23:52;;;;;;;12.18;3.10;;;;;;;19.89;46.75;102248.09;4989964;28;20038;-77
2022/06/12 04:26:30;;;;;;;6.85;2.78;;;;;;;20.24;46.59;102243.09;4990304;28;20106;-75
2022/06/12 04:29:01;;;;;;;13.98;3.10;;;;;;;20.08;46.99;102239.31;4990509;28;20514;-76
2022/06/12 04:31:28;;;;;;;10.00;3.28;;;;;;;20.06;47.13;102240.66;4990055;28;20062;-77
2022/06/12 04:34:09;;;;;;;9.60;3.10;;;;;;;20.01;47.10;102240.56;4989520;28;20536;-76
2022/06/12 04:36:35;;;;;;;10.30;2.97;;;;;;;20.38;46.51;102238.91;4989596;28;20058;-75
2022/06/12 04:39:01;;;;;;;6.80;3.15;;;;;;;20.38;46.46;102238.06;4990291;28;20160;-77
2022/06/12 04:41:31;;;;;;;7.75;2.75;;;;;;;20.24;47.31;102239.53;4990054;28;20522;-76
2022/06/12 04:43:56;;;;;;;13.82;2.88;;;;;;;20.37;46.84;102236.41;5029189;28;20484;-77
2022/06/12 04:46:22;;;;;;;13.07;3.15;;;;;;;20.56;46.45;102240.44;5031025;28;20033;-75
2022/06/12 04:48:50;;;;;;;8.30;3.03;;;;;;;20.43;46.85;102235.38;5024752;28;20546;-77
2022/06/12 04:51:17;;;;;;;12.30;3.55;;;;;;;20.51;46.88;102235.75;5030308;28;20037;-77
2022/06/12 04:53:44;;;;;;;9.02;3.15;;;;;;;20.84;45.81;102238.25;5030848;28;20091;-76
2022/06/12 04:56:11;;;;;;;18.02;3.25;;;;;;;20.89;45.34;102243.75;5030509;28;20029;-77
2022/06/12 04:58:38;;;;;;;17.27;3.42;;;;;;;19.99;48.49;102238.09;5030922;28;20094;-76
2022/06/12 05:01:05;;;;;;;11.68;3.45;;;;;;;20.19;47.79;102234.84;5024240;28;20587;-76
2022/06/12 05:03:31;;;;;;;12.02;3.33;;;;;;;20.03;49.17;102235.69;5030515;28;20124;-76
2022/06/12 05:05:56;;;;;;;15.20;3.95;;;;;;;20.58;47.99;102236.34;5025011;28;20121;-76
2022/06/12 05:08:22;;;;;;;16.90;3.38;;;;;;;20.87;46.42;102229.53;5030055;28;20051;-77
2022/06/12 05:10:48;;;;;;;11.27;3.80;;;;;;;20.29;48.99;102231.38;5023752;28;20033;-76
2022/06/12 05:13:15;;;;;;;8.23;3.33;;;;;;;20.87;47.99;102234.19;5029218;28;20068;-76
2022/06/12 05:15:40;;;;;;;13.27;3.42;;;;;;;21.09;46.86;102232.22;5022916;28;20044;-75
2022/06/12 05:18:07;;;;;;;12.02;3.38;;;;;;;20.85;48.16;102236.38;5028389;28;20033;-76
2022/06/12 05:20:35;;;;;;;7.65;3.08;;;;;;;21.20;47.32;102235.84;5027635;28;20034;-76
2022/06/12 05:23:01;;;;;;;9.93;3.70;;;;;;;21.22;47.25;102239.16;5029103;28;20037;-75
2022/06/12 05:25:27;;;;;;;12.65;3.88;;;;;;;21.35;47.13;102235.97;5029202;28;20037;-76
2022/06/12 05:27:54;;;;;;;14.98;3.15;;;;;;;21.49;47.11;102231.69;5029983;28;20038;-75
2022/06/12 05:30:24;;;;;;;9.45;2.80;;;;;;;21.61;47.29;102238.63;5029227;28;20037;-75
2022/06/12 05:32:51;;;;;;;17.95;3.47;;;;;;;21.41;47.67;102234.91;5025947;28;20061;-75
2022/06/12 05:35:18;;;;;;;12.30;4.15;;;;;;;21.81;46.75;102236.03;5028750;28;20025;-66
2022/06/12 05:37:44;;;;;;;9.93;3.85;;;;;;;21.59;47.66;102229.84;5029038;28;20030;-66
2022/06/12 05:40:15;;;;;;;18.40;4.35;;;;;;;21.59;48.65;102229.00;5028702;28;20043;-67
2022/06/12 05:42:41;;;;;;;10.35;4.18;;;;;;;21.68;48.51;102227.41;5025783;28;20033;-67
2022/06/12 05:45:12;;;;;;;11.40;3.85;;;;;;;21.77;48.80;102243.09;5025168;28;20505;-69
2022/06/12 05:47:47;;;;;;;14.02;3.67;;;;;;;21.76;49.23;102235.97;5028494;28;20608;-66
2022/06/12 05:50:13;;;;;;;17.05;4.18;;;;;;;22.04;48.14;102234.75;5028226;28;20087;-67
2022/06/12 05:52:38;;;;;;;17.30;3.60;;;;;;;21.63;49.89;102232.88;5029019;28;20029;-67
2022/06/12 05:55:04;;;;;;;13.85;3.85;;;;;;;21.59;50.51;102231.75;5028115;28;20037;-67
2022/06/12 05:57:29;;;;;;;19.02;4.50;;;;;;;21.80;50.54;102236.25;5019278;28;20520;-65
2022/06/12 05:59:55;;;;;;;15.48;3.92;;;;;;;22.54;48.95;102234.09;5024712;28;20373;-66
2022/06/12 06:02:20;;;;;;;14.40;3.28;;;;;;;21.44;51.74;102237.97;5026532;28;20072;-66
2022/06/12 06:04:46;;;;;;;15.63;4.20;;;;;;;22.49;49.53;102243.13;5023197;28;20026;-66
2022/06/12 06:07:11;;;;;;;18.20;5.07;;;;;;;22.04;50.72;102247.63;5026397;28;20069;-66
2022/06/12 06:09:37;;;;;;;23.77;4.20;;;;;;;21.62;52.07;102253.13;5026176;28;20033;-67
2022/06/12 06:12:03;;;;;;;18.85;3.70;;;;;;;21.31;52.28;102254.81;5026018;28;20033;-67
2022/06/12 06:14:28;;;;;;;16.38;3.92;;;;;;;22.10;50.41;102252.03;5025292;28;20512;-67
2022/06/12 06:16:54;;;;;;;15.77;3.60;;;;;;;21.66;50.77;102241.38;5027008;28;20470;-67
2022/06/12 06:19:19;;;;;;;15.05;3.50;;;;;;;22.87;47.91;102246.50;5024434;28;20030;-67
2022/06/12 06:21:45;;;;;;;20.33;4.43;;;;;;;21.78;50.80;102244.72;5025947;28;20044;-67
2022/06/12 06:24:11;;;;;;;19.05;4.18;;;;;;;22.19;49.40;102253.97;5025381;28;20033;-67
2022/06/12 06:26:37;;;;;;;13.23;3.40;;;;;;;22.55;49.23;102252.19;5021377;28;20072;-66
2022/06/12 06:29:03;;;;;;;18.85;3.80;;;;;;;23.30;47.59;102251.44;5027065;28;20069;-67
2022/06/12 06:31:28;;;;;;;19.15;3.60;;;;;;;22.48;49.45;102257.94;5024309;28;20037;-67
2022/06/12 06:33:55;;;;;;;21.60;3.95;;;;;;;22.25;50.15;102261.13;5028517;28;20037;-68
2022/06/12 06:36:21;;;;;;;18.27;3.83;;;;;;;21.72;51.03;102264.94;5028274;28;20037;-68
2022/06/12 06:38:50;;;;;;;28.13;4.65;;;;;;;22.35;49.31;102260.31;5030833;28;20401;-68
2022/06/12 06:41:16;;;;;;;22.42;3.67;;;;;;;23.03;48.93;102256.38;5027359;28;20091;-68
2022/06/12 06:46:25;;;;;;;21.50;4.40;;;;;;;22.87;47.57;102266.53;5029235;28;20049;-67
2022/06/12 06:48:51;;;;;;;17.15;3.47;;;;;;;23.03;48.27;102272.84;5028371;28;20037;-69
2022/06/12 06:51:17;;;;;;;17.10;3.90;;;;;;;22.79;48.14;102279.94;5028109;28;20366;-67
2022/06/12 06:53:42;;;;;;;18.25;3.53;;;;;;;22.65;49.04;102283.22;5028606;28;20562;-68
2022/06/12 06:56:08;;;;;;;24.63;4.88;;;;;;;22.63;49.30;102277.16;5029560;28;20029;-68
2022/06/12 06:58:35;;;;;;;19.48;3.83;;;;;;;22.05;50.37;102287.59;5030593;28;20112;-67
2022/06/12 07:01:01;;;;;;;16.95;3.78;;;;;;;22.78;49.38;102278.31;5031047;28;20026;-68
2022/06/12 07:03:27;;;;;;;23.40;3.83;;;;;;;22.60;49.65;102287.84;5030664;28;20509;-69
2022/06/12 07:05:53;;;;;;;22.30;5.05;;;;;;;22.78;49.31;102281.84;5030802;28;20086;-67
2022/06/12 07:08:21;;;;;;;26.90;3.95;;;;;;;22.60;50.11;102294.13;5030981;28;20408;-69
2022/06/12 07:10:48;;;;;;;19.63;3.72;;;;;;;23.05;49.18;102289.84;5031181;28;20212;-67
2022/06/12 07:13:14;;;;;;;25.67;4.72;;;;;;;22.69;48.94;102286.22;5030416;28;20026;-67
2022/06/12 07:15:40;;;;;;;13.18;3.40;;;;;;;22.95;49.44;102284.34;5030461;28;20040;-68
2022/06/12 07:18:07;;;;;;;16.55;3.90;;;;;;;23.50;47.25;102281.66;5029160;28;21501;-68
2022/06/12 07:20:37;;;;;;;14.02;3.75;;;;;;;23.27;48.08;102282.19;5027355;28;20041;-69
2022/06/12 07:23:04;;;;;;;21.27;4.85;;;;;;;23.66;46.98;102288.75;5030148;28;20025;-68
2022/06/12 07:25:36;;;;;;;20.80;4.00;;;;;;;23.42;47.97;102284.94;5029719;28;20103;-69
2022/06/12 07:28:02;;;;;;;18.85;3.33;;;;;;;23.25;47.96;102287.13;5029624;28;20042;-69
2022/06/12 07:30:28;;;;;;;16.35;3.42;;;;;;;23.38;46.95;102281.09;5029630;28;20029;-68
2022/06/12 07:32:53;;;;;;;22.13;4.22;;;;;;;23.67;46.07;102273.09;5027782;28;20072;-68
2022/06/12 07:35:19;;;;;;;19.55;3.13;;;;;;;24.00;46.63;102277.97;5027839;28;20037;-68
2022/06/12 07:37:44;;;;;;;15.48;3.75;;;;;;;24.46;45.43;102282.19;5027574;28;20358;-67
2022/06/12 07:40:16;;;;;;;24.00;3.97;;;;;;;24.17;45.46;102287.56;5028095;28;20505;-68
2022/06/12 07:42:42;;;;;;;13.85;3.25;;;;;;;24.17;44.40;102279.31;5028267;28;20117;-69
2022/06/12 07:45:08;;;;;;;15.30;3.60;;;;;;;23.99;45.28;102281.81;5027214;28;20467;-69
2022/06/12 07:47:33;;;;;;;11.00;2.60;;;;;;;24.05;44.97;102273.31;5025019;28;20110;-68
2022/06/12 07:49:59;;;;;;;25.20;4.88;;;;;;;24.74;43.47;102276.00;5029707;28;20029;-68
2022/06/12 07:52:26;;;;;;;15.85;3.92;;;;;;;24.46;43.98;102284.09;5029543;28;20079;-70
2022/06/12 07:54:52;;;;;;;12.77;2.97;;;;;;;24.14;44.99;102279.84;5030048;28;20033;-68
2022/06/12 07:57:17;;;;;;;19.10;3.50;;;;;;;23.64;45.63;102281.91;5030118;28;20033;-68
2022/06/12 07:59:43;;;;;;;15.07;3.25;;;;;;;23.81;45.65;102268.66;5026383;28;20497;-69
2022/06/12 08:02:08;;;;;;;9.43;3.20;;;;;;;24.55;44.27;102274.19;5029351;28;20034;-69
2022/06/12 08:04:34;;;;;;;25.10;5.13;;;;;;;24.65;44.00;102282.38;5029573;28;20037;-70
2022/06/12 08:06:59;;;;;;;12.85;2.78;;;;;;;24.57;44.15;102281.00;5029884;28;20033;-68
2022/06/12 08:09:25;;;;;;;10.55;3.08;;;;;;;25.28;42.68;102284.94;5029729;28;20046;-69
2022/06/12 08:11:51;;;;;;;10.55;2.88;;;;;;;24.87;42.86;102286.38;5027904;28;20493;-71
2022/06/12 08:14:20;;;;;;;17.40;4.25;;;;;;;25.31;41.80;102277.22;5027702;28;20033;-70
2022/06/12 08:16:45;;;;;;;14.50;3.15;;;;;;;25.02;42.84;102283.50;5030527;28;20158;-67
2022/06/12 08:22:00;;;;;;;14.45;2.70;;;;;;;24.75;43.26;102291.38;5028787;28;20192;-68
2022/06/12 08:24:26;;;;;;;16.17;3.72;;;;;;;24.76;42.76;102283.97;5029173;28;20034;-69
2022/06/12 08:26:52;;;;;;;19.58;3.25;;;;;;;24.86;42.99;102282.00;5029668;28;20500;-69
2022/06/12 08:29:18;;;;;;;19.88;4.45;;;;;;;25.49;42.65;102290.31;5026742;28;20041;-68
2022/06/12 08:31:57;;;;;;;18.25;4.72;;;;;;;24.92;44.18;102291.81;5029497;28;20477;-70
2022/06/12 08:34:36;;;;;;;14.65;3.30;;;;;;;24.92;43.51;102289.06;5024636;28;20049;-69
2022/06/12 08:37:13;;;;;;;14.52;3.53;;;;;;;24.58;44.58;102290.91;5021236;28;20288;-69
2022/06/12 08:39:40;;;;;;;11.95;2.80;;;;;;;24.61;44.19;102279.34;5029778;28;20092;-69
2022/06/12 08:42:18;;;;;;;11.38;3.30;;;;;;;25.70;41.45;102281.53;5028667;28;20536;-69
2022/06/12 08:44:49;;;;;;;14.02;3.63;;;;;;;25.24;42.07;102283.03;5027699;28;20046;-68
2022/06/12 08:47:17;;;;;;;15.15;4.07;;;;;;;24.67;43.55;102278.22;5029370;28;20060;-70
2022/06/12 08:49:53;;;;;;;13.38;3.25;;;;;;;25.62;41.89;102273.09;5011937;28;20041;-69
2022/06/12 08:52:18;;;;;;;14.48;3.47;;;;;;;26.00;41.82;102269.38;5026637;28;20328;-69
2022/06/12 08:54:52;;;;;;;10.38;2.72;;;;;;;25.26;41.36;102269.81;5029103;28;20029;-68
2022/06/12 08:57:49;;;;;;;13.32;3.28;;;;;;;25.09;40.55;102263.91;5028021;28;20095;-71
2022/06/12 09:00:20;;;;;;;10.65;2.78;;;;;;;25.45;40.52;102268.03;5007871;28;20046;-68
2022/06/12 09:02:46;;;;;;;12.23;2.60;;;;;;;25.04;41.50;102266.72;5003143;28;20525;-71
2022/06/12 09:05:17;;;;;;;10.55;2.65;;;;;;;25.07;39.93;102266.97;4980556;28;20038;-70
2022/06/12 09:07:51;;;;;;;11.80;2.88;;;;;;;26.07;39.71;102256.91;4989230;28;20032;-69
2022/06/12 09:10:24;;;;;;;11.73;2.78;;;;;;;25.48;41.14;102255.59;4988817;28;20038;-70
2022/06/12 09:12:55;;;;;;;14.65;3.22;;;;;;;25.43;40.35;102251.00;4989549;28;20030;-68
2022/06/12 09:15:45;;;;;;;12.90;3.15;;;;;;;25.95;39.18;102272.16;4989067;28;20034;-69
2022/06/12 09:18:49;;;;;;;11.93;3.13;;;;;;;24.79;40.84;102247.63;4988870;28;20077;-68
2022/06/12 09:21:28;;;;;;;9.50;2.45;;;;;;;25.76;39.22;102254.78;4987372;28;20058;-69
2022/06/12 09:24:23;;;;;;;13.77;2.72;;;;;;;26.28;38.48;102251.94;4984290;28;20641;-67
2022/06/12 09:26:54;;;;;;;11.45;2.65;;;;;;;25.28;37.04;102245.59;4910023;29;20036;-67
2022/06/12 09:29:25;;;;;;;;;;;;;;;25.51;38.16;102249.53;4907244;29;20115;-67
2022/06/12 09:32:15;;;;;;;8.65;2.58;;;;;;;25.99;36.62;102238.25;4889508;29;19915;-67
2022/06/12 09:34:48;;;;;;;10.37;2.47;;;;;;;25.81;35.61;102247.25;4891331;29;20052;-67
2022/06/12 09:40:41;;;;;;;10.93;2.45;;;;;;;26.44;35.71;102238.75;4909282;29;20593;-68
2022/06/12 09:43:35;;;;;;;9.35;2.25;;;;;;;25.76;36.00;102246.50;4909946;29;20457;-66
2022/06/12 09:46:15;;;;;;;8.98;1.83;;;;;;;26.43;36.14;102248.16;4910013;29;20127;-67
2022/06/12 09:48:48;;;;;;;7.90;1.88;;;;;;;25.10;36.01;102243.56;4908420;29;20044;-68
2022/06/12 09:51:40;;;;;;;10.73;3.78;;;;;;;25.96;33.50;102251.78;4907860;29;20043;-68
2022/06/12 09:54:27;;;;;;;6.22;1.77;;;;;;;26.23;33.46;102252.03;4909174;29;20493;-68
2022/06/12 09:57:03;;;;;;;8.70;1.83;;;;;;;26.88;33.46;102247.50;4901933;29;20568;-69
2022/06/12 09:59:31;;;;;;;8.35;2.10;;;;;;;26.37;34.35;102241.06;4890427;29;20047;-69
2022/06/12 10:02:02;;;;;;;9.48;2.08;;;;;;;25.90;35.08;102245.53;4891384;29;20043;-69
2022/06/12 10:04:40;;;;;;;10.15;1.98;;;;;;;25.59;34.94;102246.16;4948814;28;20403;-69
2022/06/12 10:07:13;;;;;;;11.10;2.13;;;;;;;26.17;35.26;102249.63;4975717;28;20035;-68
2022/06/12 10:10:02;;;;;;;8.25;2.38;;;;;;;25.93;35.50;102244.91;4980938;28;20498;-68
2022/06/12 10:12:37;;;;;;;8.85;2.95;;;;;;;26.41;35.88;102245.72;4979627;28;20122;-70
2022/06/12 10:15:11;;;;;;;10.55;2.67;;;;;;;26.60;35.54;102229.97;4979127;28;20226;-69
2022/06/12 10:17:47;;;;;;;11.65;2.00;;;;;;;25.78;36.67;102227.75;4972140;28;20503;-68
2022/06/12 10:20:22;;;;;;;10.85;2.42;;;;;;;26.35;35.56;102233.13;4976001;28;20146;-69
2022/06/12 10:22:53;;;;;;;13.20;3.03;;;;;;;26.34;35.54;102236.97;4976676;28;20490;-68
2022/06/12 10:25:27;;;;;;;5.32;2.28;;;;;;;26.71;35.26;102237.00;4968334;28;20035;-71
2022/06/12 10:28:01;;;;;;;10.43;2.92;;;;;;;27.27;35.37;102236.09;4977381;28;20518;-67
2022/06/12 10:30:41;;;;;;;8.23;1.98;;;;;;;27.42;34.20;102246.91;4979797;28;20035;-67
2022/06/12 10:33:31;;;;;;;12.05;2.05;;;;;;;26.86;36.26;102239.53;4983853;28;20031;-70
2022/06/12 10:36:02;;;;;;;8.65;1.85;;;;;;;26.81;36.13;102236.84;4981351;28;20042;-70
2022/06/12 10:38:31;;;;;;;7.00;2.08;;;;;;;26.61;36.02;102236.31;4977592;28;20039;-70
2022/06/12 10:41:01;;;;;;;12.80;3.15;;;;;;;27.00;34.84;102231.31;4981222;28;20085;-68
2022/06/12 10:43:42;;;;;;;7.25;2.03;;;;;;;27.08;34.86;102238.91;4984598;28;20034;-69
2022/06/12 10:46:14;;;;;;;11.02;3.40;;;;;;;28.19;33.50;102239.56;4983549;28;20096;-68
2022/06/12 10:48:39;;;;;;;8.25;2.22;;;;;;;28.51;32.48;102223.63;4982968;28;20121;-68
2022/06/12 10:51:23;;;;;;;13.13;2.95;;;;;;;28.26;31.64;102223.38;4983205;28;20498;-69
2022/06/12 10:54:00;;;;;;;7.97;2.20;;;;;;;27.45;33.45;102216.72;4979206;28;20042;-67
2022/06/12 10:56:34;;;;;;;10.20;2.25;;;;;;;27.44;33.77;102220.59;4974325;28;20051;-66
2022/06/12 10:59:23;;;;;;;9.32;2.38;;;;;;;27.17;33.49;102219.69;4977520;28;20105;-66
2022/06/12 11:01:51;;;;;;;10.32;2.63;;;;;;;28.00;32.08;102225.06;4994045;28;20054;-66
2022/06/12 11:04:35;;;;;;;8.35;1.85;;;;;;;28.22;32.12;102225.13;4994911;28;20050;-65
2022/06/12 11:07:15;;;;;;;7.93;2.25;;;;;;;29.02;31.81;102226.00;4992735;28;20059;-67
2022/06/12 11:10:15;;;;;;;6.28;2.28;;;;;;;28.15;32.41;102236.59;4995595;28;20042;-65
2022/06/12 11:13:11;;;;;;;9.13;2.33;;;;;;;28.52;31.56;102228.00;4988888;28;20034;-68
2022/06/12 11:15:39;;;;;;;4.68;1.60;;;;;;;28.79;30.79;102232.69;4989559;28;20030;-65
2022/06/12 11:18:24;;;;;;;10.90;2.25;;;;;;;28.22;31.87;102228.72;4994995;28;20050;-65
2022/06/12 11:21:32;;;;;;;9.18;2.20;;;;;;;28.36;32.43;102234.22;4981916;28;20042;-66
2022/06/12 11:24:14;;;;;;;9.43;2.78;;;;;;;28.75;31.48;102231.66;4990667;28;20142;-67
2022/06/12 11:27:18;;;;;;;9.52;2.05;;;;;;;28.90;31.38;102227.69;4986397;28;20121;-66
2022/06/12 11:29:55;;;;;;;10.23;2.42;;;;;;;27.92;31.69;102218.28;4990283;28;20030;-64
2022/06/12 11:32:33;;;;;;;9.77;2.75;;;;;;;28.32;32.79;102225.72;4996933;28;20398;-64
2022/06/12 11:35:23;;;;;;;7.88;2.28;;;;;;;27.86;32.32;102222.25;4984884;28;20034;-65
2022/06/12 11:38:07;;;;;;;7.78;2.33;;;;;;;27.95;32.07;102222.41;4986996;28;20038;-66
2022/06/12 11:41:03;;;;;;;9.95;2.10;;;;;;;27.90;31.87;102226.06;4993301;28;20050;-66
2022/06/12 11:43:39;;;;;;;6.72;1.90;;;;;;;27.85;32.61;102225.34;4991728;28;20410;-66
2022/06/12 11:46:40;;;;;;;7.38;2.50;;;;;;;27.86;32.43;102226.97;4993255;28;20038;-68
2022/06/12 11:49:24;;;;;;;6.10;1.63;;;;;;;27.79;32.77;102224.63;4998991;28;20515;-65
2022/06/12 11:52:19;;;;;;;4.78;1.83;;;;;;;27.19;32.67;102220.22;4987199;28;20039;-68
2022/06/12 11:54:57;;;;;;;5.40;1.45;;;;;;;28.25;32.27;102211.50;4997459;28;20079;-66
2022/06/12 11:57:36;;;;;;;9.02;2.13;;;;;;;29.18;30.95;102210.66;4997247;28;20446;-66
2022/06/12 12:00:18;;;;;;;9.90;1.58;;;;;;;28.86;30.98;102226.69;4996696;28;20049;-64
2022/06/12 12:02:43;;;;;;;8.82;1.58;;;;;;;28.57;29.70;102213.28;5010423;28;20057;-65